createdAt,value
2024-03-13T00:00:59.615Z,4.21
2024-03-13T00:01:59.784Z,3.51
2024-03-13T00:03:00.030Z,4.63
2024-03-13T00:04:00.025Z,3.74
2024-03-13T00:05:00.085Z,4.59
2024-03-13T00:06:00.260Z,3.73
2024-03-13T00:07:00.378Z,3.98
2024-03-13T00:08:00.464Z,4.03
2024-03-13T00:09:00.612Z,3.19
2024-03-13T00:10:00.793Z,4.72
2024-03-13T00:11:01.031Z,4.12
2024-03-13T00:12:01.017Z,3.95
2024-03-13T00:13:01.184Z,8.20
2024-03-13T00:14:01.285Z,9.49
2024-03-13T00:15:01.434Z,7.20
2024-03-13T00:16:01.659Z,8.81
2024-03-13T00:17:01.698Z,10.76
2024-03-13T00:18:01.938Z,9.45
2024-03-13T00:19:02.097Z,9.36
2024-03-13T00:20:02.304Z,7.02
2024-03-13T00:21:02.406Z,6.08
2024-03-13T00:22:02.604Z,5.47
2024-03-13T00:23:02.738Z,4.82
2024-03-13T00:24:02.921Z,5.00
2024-03-13T00:25:03.088Z,7.16
2024-03-13T00:26:03.218Z,6.90
2024-03-13T00:27:03.371Z,5.54
2024-03-13T00:28:03.632Z,5.05
2024-03-13T00:29:03.735Z,5.46
2024-03-13T00:30:03.954Z,5.43
2024-03-13T00:31:04.090Z,5.16
2024-03-13T00:32:04.227Z,6.49
2024-03-13T00:33:04.442Z,6.57
2024-03-13T00:34:04.563Z,6.01
2024-03-13T00:35:04.727Z,7.40
2024-03-13T00:36:04.856Z,6.76
2024-03-13T00:37:05.110Z,6.06
2024-03-13T00:38:05.335Z,6.02
2024-03-13T00:39:05.350Z,4.68
2024-03-13T00:40:05.603Z,4.74
2024-03-13T00:41:05.670Z,5.43
2024-03-13T00:42:05.802Z,4.23
2024-03-13T00:43:05.905Z,4.86
2024-03-13T00:44:05.991Z,4.13
2024-03-13T00:45:06.059Z,3.94
2024-03-13T00:46:06.252Z,4.60
2024-03-13T00:47:06.336Z,4.23
2024-03-13T00:48:06.371Z,3.87
2024-03-13T00:49:06.488Z,3.93
2024-03-13T00:50:06.566Z,4.25
2024-03-13T00:51:06.680Z,3.97
2024-03-13T00:52:06.890Z,3.48
2024-03-13T00:53:06.875Z,4.13
2024-03-13T00:54:06.983Z,3.64
2024-03-13T00:55:07.118Z,4.44
2024-03-13T00:56:07.198Z,3.34
2024-03-13T00:57:07.374Z,3.87
2024-03-13T00:58:07.467Z,3.21
2024-03-13T00:59:07.490Z,3.28
2024-03-13T01:00:07.599Z,3.10
2024-03-13T01:01:07.713Z,3.85
2024-03-13T01:02:07.817Z,3.54
2024-03-13T01:03:10.151Z,3.54
2024-03-13T01:04:07.993Z,3.80
2024-03-13T01:05:08.140Z,3.63
2024-03-13T01:06:08.216Z,3.48
2024-03-13T01:07:08.652Z,3.61
2024-03-13T01:08:08.375Z,3.48
2024-03-13T01:09:08.466Z,3.24
2024-03-13T01:10:08.641Z,3.16
2024-03-13T01:11:08.698Z,3.70
2024-03-13T01:12:08.773Z,3.86
2024-03-13T01:13:08.932Z,3.67
2024-03-13T01:14:09.012Z,3.48
2024-03-13T01:15:09.122Z,3.43
2024-03-13T01:16:09.169Z,3.36
2024-03-13T01:17:09.246Z,3.90
2024-03-13T01:18:09.395Z,3.42
2024-03-13T01:19:09.653Z,3.17
2024-03-13T01:20:09.610Z,2.78
2024-03-13T01:21:09.617Z,3.70
2024-03-13T01:22:09.770Z,4.08
2024-03-13T01:23:09.847Z,3.73
2024-03-13T01:24:09.986Z,4.12
2024-03-13T01:25:10.045Z,3.67
2024-03-13T01:26:10.097Z,3.46
2024-03-13T01:27:10.227Z,4.27
2024-03-13T01:28:10.502Z,4.58
2024-03-13T01:29:10.406Z,3.60
2024-03-13T01:30:10.504Z,3.23
2024-03-13T01:31:10.667Z,3.67
2024-03-13T01:32:10.703Z,4.02
2024-03-13T01:33:10.808Z,4.11
2024-03-13T01:34:10.890Z,3.92
2024-03-13T01:35:10.991Z,3.84
2024-03-13T01:36:11.085Z,3.88
2024-03-13T01:37:11.262Z,4.00
2024-03-13T01:38:11.397Z,4.15
2024-03-13T01:39:11.592Z,4.27
2024-03-13T01:40:11.783Z,4.50
2024-03-13T01:41:11.791Z,3.61
2024-03-13T01:42:11.951Z,4.25
2024-03-13T01:43:12.061Z,4.40
2024-03-13T01:44:12.165Z,3.65
2024-03-13T01:45:12.306Z,3.83
2024-03-13T01:46:12.534Z,3.74
2024-03-13T01:47:12.603Z,4.17
2024-03-13T01:48:12.713Z,4.52
2024-03-13T01:49:12.865Z,4.09
2024-03-13T01:50:12.992Z,4.56
2024-03-13T01:51:13.088Z,4.47
2024-03-13T01:52:13.311Z,4.47
2024-03-13T01:53:13.370Z,4.56
2024-03-13T01:54:13.555Z,4.54
2024-03-13T01:55:13.700Z,4.71
2024-03-13T01:56:13.832Z,3.88
2024-03-13T01:57:14.020Z,4.63
2024-03-13T01:58:14.191Z,3.93
2024-03-13T01:59:14.338Z,4.73
2024-03-13T02:00:14.473Z,5.10
2024-03-13T02:01:14.765Z,5.35
2024-03-13T02:02:14.755Z,4.52
2024-03-13T02:03:14.833Z,5.11
2024-03-13T02:04:14.885Z,4.65
2024-03-13T02:05:15.072Z,6.07
2024-03-13T02:06:15.138Z,4.59
2024-03-13T02:07:15.316Z,4.81
2024-03-13T02:08:15.453Z,5.39
2024-03-13T02:09:15.548Z,4.68
2024-03-13T02:10:15.802Z,5.40
2024-03-13T02:11:15.892Z,5.06
2024-03-13T02:12:15.986Z,5.85
2024-03-13T02:13:16.206Z,5.19
2024-03-13T02:14:16.322Z,5.46
2024-03-13T02:15:16.516Z,5.27
2024-03-13T02:16:16.731Z,5.54
2024-03-13T02:17:16.795Z,4.73
2024-03-13T02:18:17.018Z,5.25
2024-03-13T02:19:17.155Z,4.83
2024-03-13T02:20:17.277Z,4.89
2024-03-13T02:21:17.455Z,5.32
2024-03-13T02:22:17.689Z,5.24
2024-03-13T02:23:17.765Z,5.85
2024-03-13T02:24:17.900Z,5.21
2024-03-13T02:25:18.127Z,4.92
2024-03-13T02:26:18.290Z,4.68
2024-03-13T02:27:18.340Z,4.83
2024-03-13T02:28:18.479Z,5.22
2024-03-13T02:29:18.528Z,5.15
2024-03-13T02:30:18.712Z,5.22
2024-03-13T02:31:18.878Z,4.39
2024-03-13T02:32:18.857Z,4.80
2024-03-13T02:33:19.044Z,4.67
2024-03-13T02:34:19.240Z,4.60
2024-03-13T02:35:19.373Z,5.29
2024-03-13T02:36:19.594Z,4.61
2024-03-13T02:37:19.794Z,4.28
2024-03-13T02:38:19.929Z,4.50
2024-03-13T02:39:20.233Z,4.88
2024-03-13T02:40:20.205Z,4.43
2024-03-13T02:41:20.370Z,4.44
2024-03-13T02:42:20.363Z,4.33
2024-03-13T02:43:20.677Z,5.08
2024-03-13T02:44:20.573Z,4.19
2024-03-13T02:45:20.704Z,4.92
2024-03-13T02:46:20.853Z,4.51
2024-03-13T02:47:20.899Z,4.60
2024-03-13T02:48:21.017Z,4.79
2024-03-13T02:49:21.194Z,4.87
2024-03-13T02:50:21.236Z,5.38
2024-03-13T02:51:21.337Z,4.84
2024-03-13T02:52:21.498Z,3.82
2024-03-13T02:53:21.575Z,5.61
2024-03-13T02:54:21.667Z,4.26
2024-03-13T02:55:21.863Z,5.39
2024-03-13T02:56:21.881Z,4.84
2024-03-13T02:57:21.982Z,4.44
2024-03-13T02:58:22.244Z,4.04
2024-03-13T02:59:22.206Z,4.18
2024-03-13T03:00:22.325Z,5.39
2024-03-13T03:01:22.536Z,4.45
2024-03-13T03:02:22.690Z,4.94
2024-03-13T03:03:22.717Z,4.22
2024-03-13T03:04:22.898Z,4.34
2024-03-13T03:05:22.993Z,5.07
2024-03-13T03:06:23.084Z,4.40
2024-03-13T03:07:23.347Z,4.87
2024-03-13T03:08:23.304Z,4.65
2024-03-13T03:09:23.510Z,4.50
2024-03-13T03:10:23.723Z,4.59
2024-03-13T03:11:23.740Z,3.93
2024-03-13T03:12:23.922Z,4.79
2024-03-13T03:13:24.103Z,5.04
2024-03-13T03:14:24.200Z,4.74
2024-03-13T03:15:24.383Z,4.53
2024-03-13T03:16:24.570Z,4.07
2024-03-13T03:17:24.735Z,4.42
2024-03-13T03:18:24.863Z,4.16
2024-03-13T03:19:25.107Z,3.84
2024-03-13T03:20:25.118Z,3.71
2024-03-13T03:21:25.221Z,3.70
2024-03-13T03:22:25.439Z,4.01
2024-03-13T03:23:25.449Z,4.00
2024-03-13T03:24:25.580Z,4.69
2024-03-13T03:25:26.158Z,4.10
2024-03-13T03:26:25.878Z,4.78
2024-03-13T03:27:25.953Z,5.22
2024-03-13T03:28:26.118Z,4.26
2024-03-13T03:29:26.146Z,3.85
2024-03-13T03:30:26.357Z,4.41
2024-03-13T03:31:26.520Z,4.07
2024-03-13T03:32:26.991Z,3.90
2024-03-13T03:33:26.812Z,4.29
2024-03-13T03:34:27.080Z,4.41
2024-03-13T03:35:27.250Z,4.73
2024-03-13T03:36:27.355Z,4.62
2024-03-13T03:37:27.560Z,4.22
2024-03-13T03:38:27.676Z,4.35
2024-03-13T03:39:27.725Z,5.25
2024-03-13T03:40:27.968Z,4.47
2024-03-13T03:41:27.954Z,4.38
2024-03-13T03:42:28.120Z,4.34
2024-03-13T03:43:28.342Z,4.93
2024-03-13T03:44:28.264Z,4.38
2024-03-13T03:45:28.440Z,4.27
2024-03-13T03:46:28.590Z,4.64
2024-03-13T03:47:28.710Z,4.53
2024-03-13T03:48:28.961Z,4.54
2024-03-13T03:49:28.920Z,4.21
2024-03-13T03:50:28.989Z,4.86
2024-03-13T03:51:29.091Z,4.44
2024-03-13T03:52:29.216Z,5.03
2024-03-13T03:53:29.359Z,5.53
2024-03-13T03:54:29.481Z,4.84
2024-03-13T03:55:29.632Z,4.37
2024-03-13T03:56:30.454Z,5.57
2024-03-13T03:57:29.910Z,5.16
2024-03-13T03:58:30.126Z,4.74
2024-03-13T03:59:30.166Z,5.21
2024-03-13T04:00:30.303Z,4.63
2024-03-13T04:01:30.516Z,4.84
2024-03-13T04:02:30.547Z,5.40
2024-03-13T04:03:30.609Z,4.68
2024-03-13T04:04:30.815Z,5.01
2024-03-13T04:05:30.873Z,4.94
2024-03-13T04:06:30.975Z,5.18
2024-03-13T04:07:31.144Z,5.24
2024-03-13T04:08:31.214Z,5.55
2024-03-13T04:09:31.339Z,4.94
2024-03-13T04:10:31.513Z,5.51
2024-03-13T04:11:31.561Z,4.99
2024-03-13T04:12:31.668Z,5.74
2024-03-13T04:13:32.910Z,5.00
2024-03-13T04:14:31.894Z,5.42
2024-03-13T04:15:32.071Z,4.85
2024-03-13T04:16:32.219Z,5.58
2024-03-13T04:17:32.269Z,4.52
2024-03-13T04:18:32.407Z,5.85
2024-03-13T04:19:32.520Z,5.33
2024-03-13T04:20:32.678Z,5.05
2024-03-13T04:21:32.738Z,5.50
2024-03-13T04:22:32.915Z,5.09
2024-03-13T04:23:32.956Z,5.66
2024-03-13T04:24:33.055Z,5.46
2024-03-13T04:25:33.254Z,5.50
2024-03-13T04:26:33.394Z,5.55
2024-03-13T04:27:33.546Z,5.59
2024-03-13T04:28:33.702Z,5.86
2024-03-13T04:29:39.076Z,6.01
2024-03-13T04:30:35.000Z,5.63
2024-03-13T04:31:34.048Z,5.19
2024-03-13T04:32:34.099Z,4.99
2024-03-13T04:33:34.198Z,5.97
2024-03-13T04:34:34.364Z,5.32
2024-03-13T04:35:34.423Z,5.49
2024-03-13T04:36:34.472Z,6.12
2024-03-13T04:37:34.622Z,6.48
2024-03-13T04:38:34.738Z,6.25
2024-03-13T04:39:34.815Z,6.34
2024-03-13T04:40:34.984Z,6.33
2024-03-13T04:41:34.976Z,5.63
2024-03-13T04:42:35.089Z,5.57
2024-03-13T04:43:35.224Z,6.17
2024-03-13T04:44:35.323Z,5.99
2024-03-13T04:45:35.422Z,6.08
2024-03-13T04:46:35.588Z,5.99
2024-03-13T04:47:39.549Z,6.60
2024-03-13T04:48:36.770Z,6.33
2024-03-13T04:49:35.924Z,6.10
2024-03-13T04:50:35.976Z,6.23
2024-03-13T04:51:36.106Z,6.90
2024-03-13T04:52:36.137Z,6.47
2024-03-13T04:53:36.282Z,5.76
2024-03-13T04:54:36.370Z,6.57
2024-03-13T04:55:36.510Z,5.69
2024-03-13T04:56:36.594Z,6.25
2024-03-13T04:57:36.656Z,5.64
2024-03-13T04:58:36.757Z,6.37
2024-03-13T04:59:36.872Z,7.23
2024-03-13T05:00:36.997Z,6.47
2024-03-13T05:01:37.151Z,5.57
2024-03-13T05:02:40.419Z,6.05
2024-03-13T05:03:48.829Z,7.17
2024-03-13T05:04:48.773Z,6.37
2024-03-13T05:05:48.816Z,5.99
2024-03-13T05:06:48.845Z,6.29
2024-03-13T05:07:48.807Z,7.22
2024-03-13T05:08:48.794Z,6.44
2024-03-13T05:09:48.856Z,6.09
2024-03-13T05:10:48.906Z,6.08
2024-03-13T05:11:48.784Z,6.45
2024-03-13T05:12:48.825Z,6.49
2024-03-13T05:13:48.846Z,6.73
2024-03-13T05:14:48.813Z,6.57
2024-03-13T05:15:49.378Z,6.62
2024-03-13T05:16:48.823Z,6.52
2024-03-13T05:17:48.988Z,5.89
2024-03-13T05:18:48.882Z,6.58
2024-03-13T05:19:48.856Z,6.71
2024-03-13T05:20:48.834Z,5.57
2024-03-13T05:21:48.923Z,6.22
2024-03-13T05:22:48.961Z,6.26
2024-03-13T05:23:48.860Z,5.70
2024-03-13T05:24:48.900Z,6.41
2024-03-13T05:25:51.800Z,5.53
2024-03-13T05:26:48.883Z,6.33
2024-03-13T05:27:48.918Z,6.14
2024-03-13T05:28:48.898Z,6.34
2024-03-13T05:29:48.919Z,5.98
2024-03-13T05:30:48.966Z,5.40
2024-03-13T05:31:48.961Z,6.14
2024-03-13T05:32:48.990Z,5.82
2024-03-13T05:33:48.916Z,6.45
2024-03-13T05:34:48.981Z,6.70
2024-03-13T05:35:48.952Z,5.80
2024-03-13T05:36:48.993Z,6.28
2024-03-13T05:37:48.963Z,6.12
2024-03-13T05:38:48.979Z,5.12
2024-03-13T05:39:49.032Z,5.74
2024-03-13T05:40:49.006Z,5.00
2024-03-13T05:41:49.002Z,6.55
2024-03-13T05:42:49.026Z,5.15
2024-03-13T05:43:49.001Z,6.17
2024-03-13T05:44:49.009Z,5.90
2024-03-13T05:45:49.041Z,6.14
2024-03-13T05:46:49.027Z,5.30
2024-03-13T05:47:49.058Z,6.19
2024-03-13T05:48:49.110Z,5.82
2024-03-13T05:49:49.067Z,5.43
2024-03-13T05:50:49.050Z,6.29
2024-03-13T05:51:49.342Z,6.17
2024-03-13T05:52:49.068Z,6.14
2024-03-13T05:53:49.066Z,5.73
2024-03-13T05:54:49.076Z,6.45
2024-03-13T05:55:49.091Z,6.17
2024-03-13T05:56:49.048Z,5.67
2024-03-13T05:57:49.137Z,5.86
2024-03-13T05:58:49.054Z,5.47
2024-03-13T05:59:49.076Z,5.64
2024-03-13T06:02:18.100Z,6.16
2024-03-13T06:02:56.190Z,5.55
2024-03-13T06:03:55.360Z,5.58
2024-03-13T06:04:55.362Z,5.16
2024-03-13T06:05:55.348Z,4.97
2024-03-13T06:06:55.442Z,5.16
2024-03-13T06:07:55.375Z,4.84
2024-03-13T06:08:55.362Z,5.47
2024-03-13T06:09:55.388Z,4.71
2024-03-13T06:10:55.571Z,5.11
2024-03-13T06:11:55.347Z,4.89
2024-03-13T06:12:55.385Z,4.73
2024-03-13T06:13:55.410Z,4.41
2024-03-13T06:14:55.462Z,4.98
2024-03-13T06:15:55.627Z,4.87
2024-03-13T06:16:55.627Z,4.78
2024-03-13T06:17:55.657Z,4.69
2024-03-13T06:18:55.721Z,4.39
2024-03-13T06:19:55.710Z,4.79
2024-03-13T06:20:55.809Z,5.14
2024-03-13T06:21:55.871Z,4.93
2024-03-13T06:22:55.876Z,4.37
2024-03-13T06:23:55.988Z,3.99
2024-03-13T06:24:56.110Z,4.63
2024-03-13T06:25:56.102Z,4.56
2024-03-13T06:26:56.156Z,5.36
2024-03-13T06:27:56.185Z,5.58
2024-03-13T06:28:56.228Z,5.71
2024-03-13T06:29:56.310Z,4.89
2024-03-13T06:30:56.645Z,4.82
2024-03-13T06:31:56.436Z,5.04
2024-03-13T06:32:57.089Z,5.35
2024-03-13T06:33:56.905Z,4.78
2024-03-13T06:34:56.572Z,5.09
2024-03-13T06:35:57.065Z,4.81
2024-03-13T06:36:56.783Z,4.61
2024-03-13T06:37:56.754Z,5.21
2024-03-13T06:38:56.817Z,4.76
2024-03-13T06:39:57.015Z,4.81
2024-03-13T06:40:57.026Z,4.27
2024-03-13T06:41:56.982Z,4.43
2024-03-13T06:42:57.027Z,4.36
2024-03-13T06:43:57.050Z,3.89
2024-03-13T06:44:57.056Z,3.83
2024-03-13T06:47:27.725Z,4.51
2024-03-13T06:48:02.491Z,4.38
2024-03-13T06:49:02.347Z,3.95
2024-03-13T06:50:02.425Z,4.82
2024-03-13T06:51:02.637Z,4.40
2024-03-13T06:52:02.472Z,4.04
2024-03-13T06:53:02.438Z,4.34
2024-03-13T06:54:02.345Z,4.22
2024-03-13T06:55:02.508Z,4.58
2024-03-13T06:56:02.678Z,4.31
2024-03-13T06:57:02.565Z,4.20
2024-03-13T06:58:03.162Z,3.87
2024-03-13T06:59:02.404Z,4.55
2024-03-13T07:00:02.412Z,4.07
2024-03-13T07:01:02.773Z,4.19
2024-03-13T07:02:02.533Z,4.09
2024-03-13T07:03:02.419Z,4.27
2024-03-13T07:04:02.440Z,4.35
2024-03-13T07:05:02.425Z,4.30
2024-03-13T07:06:02.427Z,4.40
2024-03-13T07:07:02.509Z,4.36
2024-03-13T07:08:02.437Z,4.18
2024-03-13T07:09:02.458Z,3.82
2024-03-13T07:10:02.498Z,4.67
2024-03-13T07:11:02.497Z,5.06
2024-03-13T07:12:02.568Z,4.49
2024-03-13T07:13:02.485Z,4.92
2024-03-13T07:14:02.578Z,4.65
2024-03-13T07:15:02.582Z,4.50
2024-03-13T07:16:02.677Z,4.58
2024-03-13T07:17:02.610Z,4.04
2024-03-13T07:18:04.210Z,4.27
2024-03-13T07:19:02.645Z,4.17
2024-03-13T07:20:02.638Z,3.82
2024-03-13T07:21:03.141Z,3.95
2024-03-13T07:22:03.464Z,4.51
2024-03-13T07:23:02.750Z,4.61
2024-03-13T07:24:02.751Z,4.52
2024-03-13T07:25:02.808Z,4.29
2024-03-13T07:26:03.172Z,4.82
2024-03-13T07:27:02.797Z,4.81
2024-03-13T07:28:02.930Z,4.44
2024-03-13T07:29:02.899Z,4.51
2024-03-13T07:30:02.997Z,4.91
2024-03-13T07:31:03.181Z,4.88
2024-03-13T07:32:03.074Z,5.12
2024-03-13T07:33:03.157Z,5.83
2024-03-13T07:34:03.241Z,4.69
2024-03-13T07:35:03.152Z,5.42
2024-03-13T07:36:03.649Z,5.03
2024-03-13T07:37:03.289Z,5.64
2024-03-13T07:38:03.356Z,6.10
2024-03-13T07:39:03.404Z,5.98
2024-03-13T07:40:05.198Z,5.04
2024-03-13T07:41:03.789Z,5.31
2024-03-13T07:42:03.497Z,5.10
2024-03-13T07:43:03.636Z,5.01
2024-03-13T07:44:03.596Z,4.92
2024-03-13T07:45:03.632Z,5.44
2024-03-13T07:46:04.199Z,4.54
2024-03-13T07:47:03.654Z,5.31
2024-03-13T07:48:03.765Z,4.89
2024-03-13T07:49:04.184Z,5.23
2024-03-13T07:50:03.705Z,4.92
2024-03-13T07:51:04.591Z,4.21
2024-03-13T07:52:04.054Z,4.96
2024-03-13T07:53:03.824Z,4.31
2024-03-13T07:54:03.902Z,4.35
2024-03-13T07:55:03.964Z,5.22
2024-03-13T07:56:04.210Z,4.90
2024-03-13T07:57:03.953Z,5.63
2024-03-13T07:58:04.095Z,5.41
2024-03-13T07:59:03.962Z,4.26
2024-03-13T08:00:03.942Z,4.85
2024-03-13T08:01:04.122Z,5.15
2024-03-13T08:02:04.149Z,5.01
2024-03-13T08:03:04.064Z,5.32
2024-03-13T08:04:04.126Z,5.09
2024-03-13T08:05:04.046Z,5.64
2024-03-13T09:06:02.600Z,1.92
2024-03-13T09:07:01.951Z,2.97
2024-03-13T09:08:02.002Z,2.26
2024-03-13T09:09:01.783Z,2.54
2024-03-13T09:10:01.688Z,2.70
2024-03-13T09:11:01.721Z,2.53
2024-03-13T09:12:01.749Z,2.67
2024-03-13T09:13:01.563Z,2.41
2024-03-13T09:14:01.550Z,2.58
2024-03-13T09:15:02.231Z,2.52
2024-03-13T09:16:01.433Z,2.45
2024-03-13T09:17:01.377Z,2.33
2024-03-13T09:18:01.484Z,2.14
2024-03-13T09:19:01.391Z,2.15
2024-03-13T09:20:01.193Z,2.27
2024-03-13T09:21:01.283Z,2.18
2024-03-13T09:22:02.024Z,2.21
2024-03-13T09:23:01.647Z,3.01
2024-03-13T09:24:01.044Z,2.59
2024-03-13T09:25:00.943Z,1.92
2024-03-13T09:26:00.918Z,2.24
2024-03-13T09:27:01.819Z,2.42
2024-03-13T09:28:00.823Z,2.24
2024-03-13T09:29:00.801Z,2.14
2024-03-13T09:30:00.903Z,1.84
2024-03-13T09:31:01.604Z,1.67
2024-03-13T09:32:01.151Z,2.36
2024-03-13T09:33:00.975Z,1.80
2024-03-13T09:34:00.865Z,2.10
2024-03-13T09:35:00.635Z,1.59
2024-03-13T09:36:00.721Z,1.77
2024-03-13T09:37:01.150Z,1.73
2024-03-13T09:38:00.590Z,2.40
2024-03-13T09:39:00.911Z,1.60
2024-03-13T09:40:00.593Z,1.85
2024-03-13T09:41:00.571Z,2.29
2024-03-13T09:42:00.713Z,1.63
2024-03-13T09:43:00.604Z,1.85
2024-03-13T09:44:00.690Z,1.98
2024-03-13T09:45:00.736Z,1.82
2024-03-13T09:46:00.482Z,1.57
2024-03-13T09:47:00.683Z,2.41
2024-03-13T09:48:00.545Z,2.44
2024-03-13T09:49:00.582Z,2.03
2024-03-13T09:50:00.416Z,2.29
2024-03-13T09:52:00.856Z,2.05
2024-03-13T09:53:00.208Z,1.48
2024-03-13T09:54:00.157Z,1.10
2024-03-13T09:54:59.979Z,1.36
2024-03-13T09:55:59.897Z,1.25
2024-03-13T09:57:00.368Z,1.88
2024-03-13T09:57:59.800Z,2.17
2024-03-13T09:58:59.711Z,1.65
2024-03-13T09:59:59.671Z,1.62
2024-03-13T10:00:59.611Z,1.34
2024-03-13T10:01:59.622Z,1.44
2024-03-13T10:02:59.472Z,1.55
2024-03-13T10:03:59.374Z,1.47
2024-03-13T10:04:59.264Z,1.24
2024-03-13T10:05:59.203Z,1.85
2024-03-13T10:06:59.449Z,1.76
2024-03-13T10:07:59.460Z,1.66
2024-03-13T10:08:59.002Z,1.12
2024-03-13T10:09:58.858Z,1.49
2024-03-13T10:10:59.073Z,1.38
2024-03-13T10:11:58.792Z,1.26
2024-03-13T10:12:58.737Z,1.43
2024-03-13T10:13:58.581Z,1.33
2024-03-13T10:14:58.513Z,1.69
2024-03-13T10:15:58.394Z,1.59
2024-03-13T10:17:00.652Z,1.51
2024-03-13T10:17:58.709Z,1.61
2024-03-13T10:18:58.184Z,2.01
2024-03-13T10:19:58.013Z,1.90
2024-03-13T10:20:57.938Z,1.82
2024-03-13T10:21:57.845Z,1.90
2024-03-13T10:22:57.652Z,1.77
2024-03-13T10:23:57.729Z,1.77
2024-03-13T10:24:57.530Z,1.68
2024-03-13T10:25:57.369Z,1.43
2024-03-13T10:26:57.257Z,1.41
2024-03-13T10:27:57.689Z,1.94
2024-03-13T10:28:57.076Z,1.24
2024-03-13T10:29:57.009Z,1.84
2024-03-13T10:30:56.945Z,1.47
2024-03-13T10:31:56.823Z,1.91
2024-03-13T10:32:56.845Z,1.57
2024-03-13T10:33:56.743Z,1.58
2024-03-13T10:34:59.112Z,1.59
2024-03-13T10:35:56.309Z,1.75
2024-03-13T10:37:05.116Z,1.47
2024-03-13T10:37:57.142Z,1.60
2024-03-13T10:38:56.038Z,1.31
2024-03-13T10:39:55.792Z,1.23
2024-03-13T10:40:56.683Z,2.16
2024-03-13T10:41:55.609Z,1.18
2024-03-13T10:42:55.668Z,1.58
2024-03-13T10:43:55.206Z,2.05
2024-03-13T10:44:55.197Z,1.37
2024-03-13T10:45:55.166Z,1.43
2024-03-13T10:46:55.624Z,1.54
2024-03-13T10:47:55.241Z,1.52
2024-03-13T10:48:54.693Z,1.07
2024-03-13T10:49:54.929Z,1.02
2024-03-13T10:50:55.539Z,1.14
2024-03-13T10:51:54.231Z,0.88
2024-03-13T10:52:54.682Z,1.15
2024-03-13T10:53:54.218Z,1.09
2024-03-13T10:54:54.080Z,1.24
2024-03-13T10:55:54.050Z,1.45
2024-03-13T10:56:54.006Z,1.77
2024-03-13T10:57:53.863Z,1.37
2024-03-13T10:58:53.791Z,1.26
2024-03-13T10:59:53.754Z,1.56
2024-03-13T11:00:53.698Z,1.41
2024-03-13T11:01:53.727Z,1.63
2024-03-13T11:02:53.745Z,2.02
2024-03-13T11:03:53.512Z,1.80
2024-03-13T11:04:53.397Z,1.65
2024-03-13T11:05:53.389Z,2.06
2024-03-13T11:06:53.360Z,1.55
2024-03-13T11:07:53.677Z,1.89
2024-03-13T11:08:54.153Z,1.62
2024-03-13T11:09:53.225Z,1.77
2024-03-13T11:11:06.300Z,1.31
2024-03-13T11:11:54.823Z,1.58
2024-03-13T11:12:53.387Z,1.39
2024-03-13T11:13:52.884Z,1.65
2024-03-13T11:14:52.750Z,1.33
2024-03-13T11:15:52.620Z,1.38
2024-03-13T11:16:52.530Z,1.31
2024-03-13T11:17:52.859Z,1.23
2024-03-13T11:18:52.562Z,1.36
2024-03-13T11:19:52.278Z,1.22
2024-03-13T11:20:52.180Z,1.04
2024-03-13T11:21:52.032Z,0.78
2024-03-13T11:22:52.180Z,1.31
2024-03-13T11:23:51.920Z,1.23
2024-03-13T11:24:51.877Z,1.30
2024-03-13T11:25:51.741Z,1.25
2024-03-13T11:26:51.549Z,1.11
2024-03-13T11:27:51.523Z,1.41
2024-03-13T11:28:51.794Z,0.92
2024-03-13T11:29:51.375Z,1.13
2024-03-13T11:30:51.147Z,1.32
2024-03-13T11:31:51.104Z,1.24
2024-03-13T11:32:51.026Z,1.26
2024-03-13T11:33:51.501Z,1.21
2024-03-13T11:34:50.772Z,1.42
2024-03-13T11:35:50.660Z,1.27
2024-03-13T11:36:50.590Z,1.44
2024-03-13T11:37:50.371Z,1.45
2024-03-13T11:38:50.755Z,1.45
2024-03-13T11:39:50.153Z,1.41
2024-03-13T11:40:50.165Z,1.42
2024-03-13T11:41:50.076Z,1.33
2024-03-13T11:42:49.895Z,1.70
2024-03-13T11:43:50.231Z,1.40
2024-03-13T11:44:49.583Z,1.56
2024-03-13T11:45:49.465Z,1.41
2024-03-13T11:46:49.432Z,1.38
2024-03-13T11:47:49.610Z,1.48
2024-03-13T11:48:49.381Z,1.16
2024-03-13T11:49:49.147Z,1.28
2024-03-13T11:50:49.010Z,1.14
2024-03-13T11:51:48.808Z,1.35
2024-03-13T11:52:48.751Z,1.41
2024-03-13T11:53:48.783Z,0.81
2024-03-13T11:54:48.588Z,1.01
2024-03-13T11:55:48.405Z,1.19
2024-03-13T11:56:48.339Z,1.36
2024-03-13T11:57:48.170Z,1.12
2024-03-13T11:58:48.251Z,1.07
2024-03-13T11:59:48.278Z,1.31
2024-03-13T12:00:47.835Z,1.04
2024-03-13T12:01:47.685Z,1.04
2024-03-13T12:02:47.680Z,1.14
2024-03-13T12:03:47.506Z,1.05
2024-03-13T12:04:47.676Z,1.13
2024-03-13T12:05:47.452Z,1.19
2024-03-13T12:06:48.589Z,1.39
2024-03-13T12:07:46.987Z,1.02
2024-03-13T12:08:47.240Z,1.28
2024-03-13T12:09:46.756Z,1.00
2024-03-13T12:10:46.660Z,1.06
2024-03-13T12:11:46.513Z,1.15
2024-03-13T12:12:46.374Z,1.14
2024-03-13T12:13:46.676Z,1.39
2024-03-13T12:14:46.562Z,1.56
2024-03-13T12:15:45.902Z,1.60
2024-03-13T12:16:45.842Z,1.49
2024-03-13T12:17:45.777Z,1.21
2024-03-13T12:18:45.790Z,1.39
2024-03-13T12:19:45.521Z,1.14
2024-03-13T12:20:45.468Z,1.26
2024-03-13T12:21:45.291Z,1.69
2024-03-13T12:22:45.142Z,1.78
2024-03-13T12:23:45.227Z,1.54
2024-03-13T12:24:44.868Z,1.43
2024-03-13T12:25:44.817Z,1.37
2024-03-13T12:26:44.692Z,1.09
2024-03-13T12:27:44.526Z,1.57
2024-03-13T12:28:44.726Z,1.30
2024-03-13T12:29:44.224Z,1.47
2024-03-13T12:30:44.065Z,1.18
2024-03-13T12:31:44.014Z,1.44
2024-03-13T12:32:43.885Z,1.30
2024-03-13T12:33:44.302Z,1.11
2024-03-13T12:34:43.510Z,1.28
2024-03-13T12:35:43.549Z,1.44
2024-03-13T12:36:43.447Z,1.14
2024-03-13T12:37:43.203Z,1.23
2024-03-13T12:38:43.111Z,1.11
2024-03-13T12:39:42.949Z,1.37
2024-03-13T12:40:42.936Z,1.08
2024-03-13T12:41:42.755Z,1.18
2024-03-13T12:42:42.578Z,1.49
2024-03-13T12:43:45.784Z,0.95
2024-03-13T12:44:42.296Z,1.46
2024-03-13T12:45:42.129Z,1.16
2024-03-13T12:46:41.957Z,1.38
2024-03-13T12:47:41.873Z,1.50
2024-03-13T12:48:41.705Z,1.39
2024-03-13T12:49:41.442Z,1.23
2024-03-13T12:50:41.284Z,1.32
2024-03-13T12:51:41.152Z,1.63
2024-03-13T12:52:40.891Z,1.39
2024-03-13T12:53:41.290Z,1.54
2024-03-13T12:54:40.543Z,1.19
2024-03-13T12:55:40.346Z,1.26
2024-03-13T12:56:40.208Z,1.46
2024-03-13T12:57:40.076Z,1.28
2024-03-13T12:58:39.961Z,1.45
2024-03-13T12:59:40.709Z,1.26
2024-03-13T13:00:39.557Z,1.25
2024-03-13T13:01:39.493Z,1.38
2024-03-13T13:02:39.277Z,1.44
2024-03-13T13:03:39.140Z,1.33
2024-03-13T13:04:38.976Z,0.96
2024-03-13T13:05:40.826Z,0.98
2024-03-13T13:06:38.717Z,1.14
2024-03-13T13:07:38.578Z,1.38
2024-03-13T13:08:38.499Z,1.31
2024-03-13T13:09:38.216Z,1.27
2024-03-13T13:10:38.054Z,1.05
2024-03-13T13:11:37.996Z,1.16
2024-03-13T13:12:37.879Z,1.55
2024-03-13T13:13:37.665Z,1.29
2024-03-13T13:14:37.477Z,1.19
2024-03-13T13:15:37.390Z,1.55
2024-03-13T13:16:37.181Z,1.56
2024-03-13T13:17:37.069Z,1.86
2024-03-13T13:18:37.083Z,1.57
2024-03-13T13:19:36.718Z,2.14
2024-03-13T13:20:36.572Z,2.38
2024-03-13T13:21:36.459Z,2.23
2024-03-13T13:22:36.336Z,2.32
2024-03-13T13:23:36.237Z,2.24
2024-03-13T13:24:35.982Z,2.62
2024-03-13T13:25:35.886Z,2.19
2024-03-13T13:26:35.780Z,1.69
2024-03-13T13:27:35.546Z,2.10
2024-03-13T13:28:35.589Z,1.96
2024-03-13T13:29:35.263Z,1.78
2024-03-13T13:30:35.125Z,1.17
2024-03-13T13:31:34.956Z,1.64
2024-03-13T13:32:34.842Z,1.39
2024-03-13T13:33:34.883Z,1.69
2024-03-13T13:34:34.408Z,1.67
2024-03-13T13:35:34.289Z,1.64
2024-03-13T13:36:34.099Z,1.69
2024-03-13T13:37:33.965Z,1.43
2024-03-13T13:39:09.524Z,1.50
2024-03-13T13:40:09.367Z,1.27
2024-03-13T13:41:09.543Z,1.43
2024-03-13T13:42:09.387Z,1.54
2024-03-13T13:43:09.348Z,1.31
2024-03-13T13:44:09.359Z,1.31
2024-03-13T13:45:09.502Z,1.49
2024-03-13T13:46:09.376Z,1.52
2024-03-13T13:47:09.447Z,1.52
2024-03-13T13:48:09.413Z,1.16
2024-03-13T13:49:09.623Z,1.36
2024-03-13T13:50:09.396Z,1.39
2024-03-13T13:51:09.434Z,1.28
2024-03-13T13:52:09.413Z,1.25
2024-03-13T13:53:09.418Z,1.12
2024-03-13T13:54:09.585Z,1.08
2024-03-13T13:55:09.468Z,1.20
2024-03-13T13:56:09.528Z,0.97
2024-03-13T13:57:09.620Z,1.43
2024-03-13T13:58:09.580Z,1.31
2024-03-13T13:59:09.590Z,1.23
2024-03-13T14:00:10.479Z,1.19
2024-03-13T14:01:09.695Z,1.29
2024-03-13T14:02:09.672Z,1.20
2024-03-13T14:03:09.769Z,1.32
2024-03-13T14:04:09.861Z,1.05
2024-03-13T14:05:09.825Z,1.01
2024-03-13T14:06:09.885Z,1.69
2024-03-13T14:07:10.394Z,1.17
2024-03-13T14:08:09.968Z,1.46
2024-03-13T14:09:10.041Z,1.12
2024-03-13T14:10:10.028Z,1.31
2024-03-13T14:11:10.116Z,0.95
2024-03-13T14:12:10.314Z,1.00
2024-03-13T14:13:10.208Z,1.06
2024-03-13T14:14:10.262Z,1.36
2024-03-13T14:15:10.297Z,1.41
2024-03-13T14:16:10.332Z,1.52
2024-03-13T14:17:10.395Z,0.84
2024-03-13T14:18:10.495Z,1.22
2024-03-13T14:19:10.608Z,0.89
2024-03-13T14:20:10.506Z,1.04
2024-03-13T14:21:10.545Z,1.24
2024-03-13T14:22:10.581Z,1.21
2024-03-13T14:23:10.628Z,1.29